Estación Meteorológica Peña el Pijo (Robertgarden) [ 02/03/23 03:19:48 CET ]

Fecha Hora Presion(HPa) Temp (°C) Humedad % Rocio (°C) Viento ( m/s) Direccion Lluvia 1Hora(mm) Lluvia 24H(mm) LLuvia Total(mm)
2012-Aug-07 01:01:13 1015.300 20.3 48 8.9         176.12
2012-Aug-07 02:01:15 1015.600 19.3 53 9.5         176.12
2012-Aug-07 03:08:06 1015.500 18.1 64 11.2         176.12
2012-Aug-07 04:01:14 1015.300 16.9 72 11.8         176.12
2012-Aug-07 05:01:12 1015.100 16.1 77 12.1 0.9 NE     176.12
2012-Aug-07 06:01:14 1015.500 15.3 81 12.1         176.12
2012-Aug-07 07:01:16 1015.800 14.9 83 12.0         176.12
2012-Aug-07 08:01:12 1016.100 15.1 84 12.4         176.12
2012-Aug-07 09:01:12 1016.500 18.1 77 14.0         176.12
2012-Aug-07 10:01:12 1016.500 21.8 65 14.9         176.12
2012-Aug-07 11:01:13 1016.400 24.4 51 13.6 3.1 NE     176.12
2012-Aug-07 12:01:13 1016.200 25.4 48 13.6         176.12
2012-Aug-07 13:01:12 1015.900 26.5 45 13.6         176.12
2012-Aug-07 14:01:14 1015.600 28.9 39 13.6 0.6 SW     176.12
2012-Aug-07 15:01:12 1015.500 28.8 41 14.3 1.1 WNW     176.12
2012-Aug-07 16:01:13 1015.100 29.4 39 14.0         176.12
2012-Aug-07 17:01:14 1014.700 29.4 37 13.1 3.6 E     176.12
2012-Aug-07 18:01:14 1014.300 29.7 36 13.0         176.12
2012-Aug-07 19:01:16 1014.300 28.2 37 12.1 2.7 NE     176.12
2012-Aug-07 20:01:11 1014.300 25.5 41 11.3         176.12
2012-Aug-07 21:01:13 1015.100 23.0 45 10.3         176.12
2012-Aug-07 22:01:19 1015.700 21.1 51 10.6         176.12
2012-Aug-07 23:01:13 1016.200 19.6 58 10.8         176.12

Temperatura Máxima:29°    Temperatura Mínima:14°
Presión Máxima:1016.500 Hpa    Presión Mínima:1014.300 Hpa


Volver